sensor_id;sensor_type;location;lat;lon;timestamp;P1;durP1;ratioP1;P2;durP2;ratioP2
7817;SDS011;3954;52.624;9.212;2023-04-04T00:02:12;1.80;;;1.53;;
7817;SDS011;3954;52.624;9.212;2023-04-04T00:04:38;1.83;;;1.73;;
7817;SDS011;3954;52.624;9.212;2023-04-04T00:07:04;2.33;;;1.60;;
7817;SDS011;3954;52.624;9.212;2023-04-04T00:09:32;3.67;;;1.67;;
7817;SDS011;3954;52.624;9.212;2023-04-04T00:11:58;2.50;;;1.63;;
7817;SDS011;3954;52.624;9.212;2023-04-04T00:14:24;2.20;;;1.57;;
7817;SDS011;3954;52.624;9.212;2023-04-04T00:16:51;1.77;;;1.63;;
7817;SDS011;3954;52.624;9.212;2023-04-04T00:19:17;2.03;;;1.57;;
7817;SDS011;3954;52.624;9.212;2023-04-04T00:21:43;2.70;;;1.77;;
7817;SDS011;3954;52.624;9.212;2023-04-04T00:24:12;1.80;;;1.63;;
7817;SDS011;3954;52.624;9.212;2023-04-04T00:26:39;1.60;;;1.50;;
7817;SDS011;3954;52.624;9.212;2023-04-04T00:29:05;1.50;;;1.40;;
7817;SDS011;3954;52.624;9.212;2023-04-04T00:31:31;1.90;;;1.60;;
7817;SDS011;3954;52.624;9.212;2023-04-04T00:33:58;1.83;;;1.70;;
7817;SDS011;3954;52.624;9.212;2023-04-04T00:36:24;3.70;;;1.73;;
7817;SDS011;3954;52.624;9.212;2023-04-04T00:38:49;3.23;;;1.77;;
7817;SDS011;3954;52.624;9.212;2023-04-04T00:41:16;2.47;;;1.60;;
7817;SDS011;3954;52.624;9.212;2023-04-04T00:43:43;2.80;;;2.20;;
7817;SDS011;3954;52.624;9.212;2023-04-04T00:46:10;2.23;;;1.67;;
7817;SDS011;3954;52.624;9.212;2023-04-04T00:48:39;2.67;;;1.80;;
7817;SDS011;3954;52.624;9.212;2023-04-04T00:51:05;2.63;;;1.83;;
7817;SDS011;3954;52.624;9.212;2023-04-04T00:53:31;2.53;;;1.87;;
7817;SDS011;3954;52.624;9.212;2023-04-04T00:55:57;3.20;;;2.00;;
7817;SDS011;3954;52.624;9.212;2023-04-04T00:58:23;2.17;;;1.50;;
7817;SDS011;3954;52.624;9.212;2023-04-04T01:00:52;3.33;;;1.80;;
7817;SDS011;3954;52.624;9.212;2023-04-04T01:03:18;2.73;;;1.70;;
7817;SDS011;3954;52.624;9.212;2023-04-04T01:05:44;2.60;;;1.80;;
7817;SDS011;3954;52.624;9.212;2023-04-04T01:08:10;2.87;;;1.73;;
7817;SDS011;3954;52.624;9.212;2023-04-04T01:10:36;4.23;;;1.80;;
7817;SDS011;3954;52.624;9.212;2023-04-04T01:13:03;2.67;;;1.80;;
7817;SDS011;3954;52.624;9.212;2023-04-04T01:15:30;2.87;;;1.90;;
7817;SDS011;3954;52.624;9.212;2023-04-04T01:17:57;1.90;;;1.77;;
7817;SDS011;3954;52.624;9.212;2023-04-04T01:20:25;2.33;;;1.83;;
7817;SDS011;3954;52.624;9.212;2023-04-04T01:22:51;2.10;;;1.77;;
7817;SDS011;3954;52.624;9.212;2023-04-04T01:25:23;1.80;;;1.70;;
7817;SDS011;3954;52.624;9.212;2023-04-04T01:27:50;3.83;;;1.87;;
7817;SDS011;3954;52.624;9.212;2023-04-04T01:30:16;2.10;;;1.80;;
7817;SDS011;3954;52.624;9.212;2023-04-04T01:32:43;3.00;;;1.80;;
7817;SDS011;3954;52.624;9.212;2023-04-04T01:35:12;2.60;;;1.67;;
7817;SDS011;3954;52.624;9.212;2023-04-04T01:37:46;2.30;;;1.80;;
7817;SDS011;3954;52.624;9.212;2023-04-04T01:40:15;2.03;;;1.60;;
7817;SDS011;3954;52.624;9.212;2023-04-04T01:42:44;3.07;;;1.70;;
7817;SDS011;3954;52.624;9.212;2023-04-04T01:45:10;2.87;;;1.57;;
7817;SDS011;3954;52.624;9.212;2023-04-04T01:47:37;1.80;;;1.60;;
7817;SDS011;3954;52.624;9.212;2023-04-04T01:50:03;3.73;;;1.40;;
7817;SDS011;3954;52.624;9.212;2023-04-04T01:52:29;1.93;;;1.70;;
7817;SDS011;3954;52.624;9.212;2023-04-04T01:54:55;1.63;;;1.50;;
7817;SDS011;3954;52.624;9.212;2023-04-04T01:57:22;1.97;;;1.57;;
7817;SDS011;3954;52.624;9.212;2023-04-04T01:59:49;2.87;;;1.87;;
7817;SDS011;3954;52.624;9.212;2023-04-04T02:02:15;3.57;;;1.83;;
7817;SDS011;3954;52.624;9.212;2023-04-04T02:04:41;1.73;;;1.60;;
7817;SDS011;3954;52.624;9.212;2023-04-04T02:07:07;2.80;;;1.97;;
7817;SDS011;3954;52.624;9.212;2023-04-04T02:09:33;1.80;;;1.70;;
7817;SDS011;3954;52.624;9.212;2023-04-04T02:11:59;2.03;;;1.83;;
7817;SDS011;3954;52.624;9.212;2023-04-04T02:14:25;5.63;;;1.83;;
7817;SDS011;3954;52.624;9.212;2023-04-04T02:16:53;2.27;;;1.80;;
7817;SDS011;3954;52.624;9.212;2023-04-04T02:19:19;2.83;;;1.60;;
7817;SDS011;3954;52.624;9.212;2023-04-04T02:21:45;2.77;;;1.60;;
7817;SDS011;3954;52.624;9.212;2023-04-04T02:24:11;4.27;;;2.10;;
7817;SDS011;3954;52.624;9.212;2023-04-04T02:26:37;2.40;;;1.70;;
7817;SDS011;3954;52.624;9.212;2023-04-04T02:29:03;1.97;;;1.57;;
7817;SDS011;3954;52.624;9.212;2023-04-04T02:31:29;2.33;;;1.77;;
7817;SDS011;3954;52.624;9.212;2023-04-04T02:33:57;3.57;;;2.03;;
7817;SDS011;3954;52.624;9.212;2023-04-04T02:36:22;2.93;;;2.03;;
7817;SDS011;3954;52.624;9.212;2023-04-04T02:38:48;2.80;;;1.70;;
7817;SDS011;3954;52.624;9.212;2023-04-04T02:41:14;4.47;;;2.27;;
7817;SDS011;3954;52.624;9.212;2023-04-04T02:43:40;3.00;;;1.80;;
7817;SDS011;3954;52.624;9.212;2023-04-04T02:46:06;2.30;;;1.93;;
7817;SDS011;3954;52.624;9.212;2023-04-04T02:48:32;2.87;;;1.87;;
7817;SDS011;3954;52.624;9.212;2023-04-04T02:51:01;3.53;;;2.37;;
7817;SDS011;3954;52.624;9.212;2023-04-04T02:53:28;3.07;;;1.90;;
7817;SDS011;3954;52.624;9.212;2023-04-04T02:55:54;2.40;;;2.17;;
7817;SDS011;3954;52.624;9.212;2023-04-04T02:58:20;2.60;;;2.03;;
7817;SDS011;3954;52.624;9.212;2023-04-04T03:00:52;2.80;;;1.90;;
7817;SDS011;3954;52.624;9.212;2023-04-04T03:03:18;2.97;;;1.90;;
7817;SDS011;3954;52.624;9.212;2023-04-04T03:05:44;2.93;;;1.93;;
7817;SDS011;3954;52.624;9.212;2023-04-04T03:08:12;6.40;;;2.53;;
7817;SDS011;3954;52.624;9.212;2023-04-04T03:10:38;2.70;;;2.00;;
7817;SDS011;3954;52.624;9.212;2023-04-04T03:13:04;4.27;;;1.80;;
7817;SDS011;3954;52.624;9.212;2023-04-04T03:15:30;3.13;;;2.13;;
7817;SDS011;3954;52.624;9.212;2023-04-04T03:17:56;3.40;;;1.97;;
7817;SDS011;3954;52.624;9.212;2023-04-04T03:20:23;2.40;;;1.87;;
7817;SDS011;3954;52.624;9.212;2023-04-04T03:22:50;2.47;;;1.57;;
7817;SDS011;3954;52.624;9.212;2023-04-04T03:25:17;2.23;;;2.03;;
7817;SDS011;3954;52.624;9.212;2023-04-04T03:27:43;3.10;;;1.70;;
7817;SDS011;3954;52.624;9.212;2023-04-04T03:30:10;3.57;;;1.87;;
7817;SDS011;3954;52.624;9.212;2023-04-04T03:32:36;4.43;;;2.10;;
7817;SDS011;3954;52.624;9.212;2023-04-04T03:35:03;3.50;;;1.90;;
7817;SDS011;3954;52.624;9.212;2023-04-04T03:37:30;2.20;;;1.70;;
7817;SDS011;3954;52.624;9.212;2023-04-04T03:39:56;2.33;;;2.10;;
7817;SDS011;3954;52.624;9.212;2023-04-04T03:42:23;3.20;;;2.00;;
7817;SDS011;3954;52.624;9.212;2023-04-04T03:44:50;4.60;;;2.20;;
7817;SDS011;3954;52.624;9.212;2023-04-04T03:47:17;2.10;;;1.80;;
7817;SDS011;3954;52.624;9.212;2023-04-04T03:49:46;2.70;;;1.70;;
7817;SDS011;3954;52.624;9.212;2023-04-04T03:52:15;3.80;;;1.90;;
7817;SDS011;3954;52.624;9.212;2023-04-04T03:54:41;2.43;;;2.00;;
7817;SDS011;3954;52.624;9.212;2023-04-04T03:57:07;3.03;;;2.03;;
7817;SDS011;3954;52.624;9.212;2023-04-04T03:59:34;2.67;;;1.83;;
7817;SDS011;3954;52.624;9.212;2023-04-04T04:02:00;2.83;;;1.70;;
7817;SDS011;3954;52.624;9.212;2023-04-04T04:04:26;2.80;;;1.80;;
7817;SDS011;3954;52.624;9.212;2023-04-04T04:06:52;2.90;;;1.90;;
7817;SDS011;3954;52.624;9.212;2023-04-04T04:09:18;2.00;;;1.80;;
7817;SDS011;3954;52.624;9.212;2023-04-04T04:11:45;2.97;;;1.80;;
7817;SDS011;3954;52.624;9.212;2023-04-04T04:14:11;1.80;;;1.70;;
7817;SDS011;3954;52.624;9.212;2023-04-04T04:16:39;3.77;;;2.10;;
7817;SDS011;3954;52.624;9.212;2023-04-04T04:19:05;2.93;;;2.30;;
7817;SDS011;3954;52.624;9.212;2023-04-04T04:21:31;4.10;;;2.20;;
7817;SDS011;3954;52.624;9.212;2023-04-04T04:23:57;2.20;;;2.00;;
7817;SDS011;3954;52.624;9.212;2023-04-04T04:26:23;2.90;;;2.27;;
7817;SDS011;3954;52.624;9.212;2023-04-04T04:28:50;4.27;;;2.70;;
7817;SDS011;3954;52.624;9.212;2023-04-04T04:31:16;3.23;;;2.30;;
7817;SDS011;3954;52.624;9.212;2023-04-04T04:33:43;2.73;;;1.80;;
7817;SDS011;3954;52.624;9.212;2023-04-04T04:36:09;2.47;;;1.90;;
7817;SDS011;3954;52.624;9.212;2023-04-04T04:38:35;3.90;;;2.07;;
7817;SDS011;3954;52.624;9.212;2023-04-04T04:41:01;2.33;;;2.00;;
7817;SDS011;3954;52.624;9.212;2023-04-04T04:43:27;2.50;;;1.80;;
7817;SDS011;3954;52.624;9.212;2023-04-04T04:45:53;3.50;;;2.03;;
7817;SDS011;3954;52.624;9.212;2023-04-04T04:48:19;3.10;;;1.97;;
7817;SDS011;3954;52.624;9.212;2023-04-04T04:50:47;3.13;;;2.03;;
7817;SDS011;3954;52.624;9.212;2023-04-04T04:53:13;3.37;;;2.43;;
7817;SDS011;3954;52.624;9.212;2023-04-04T04:55:39;3.83;;;2.27;;
7817;SDS011;3954;52.624;9.212;2023-04-04T04:58:07;2.97;;;2.07;;
7817;SDS011;3954;52.624;9.212;2023-04-04T05:00:33;5.90;;;2.10;;
7817;SDS011;3954;52.624;9.212;2023-04-04T05:02:59;3.93;;;2.20;;
7817;SDS011;3954;52.624;9.212;2023-04-04T05:05:25;2.97;;;2.20;;
7817;SDS011;3954;52.624;9.212;2023-04-04T05:07:52;3.20;;;2.07;;
7817;SDS011;3954;52.624;9.212;2023-04-04T05:10:18;3.93;;;2.00;;
7817;SDS011;3954;52.624;9.212;2023-04-04T05:12:44;3.73;;;2.03;;
7817;SDS011;3954;52.624;9.212;2023-04-04T05:15:11;2.87;;;2.00;;
7817;SDS011;3954;52.624;9.212;2023-04-04T05:17:37;2.60;;;2.07;;
7817;SDS011;3954;52.624;9.212;2023-04-04T05:20:04;3.37;;;2.00;;
7817;SDS011;3954;52.624;9.212;2023-04-04T05:22:31;4.00;;;2.13;;
7817;SDS011;3954;52.624;9.212;2023-04-04T05:24:58;2.73;;;2.17;;
7817;SDS011;3954;52.624;9.212;2023-04-04T05:27:25;3.90;;;2.07;;
7817;SDS011;3954;52.624;9.212;2023-04-04T05:29:51;3.37;;;2.00;;
7817;SDS011;3954;52.624;9.212;2023-04-04T05:32:17;3.77;;;2.30;;
7817;SDS011;3954;52.624;9.212;2023-04-04T05:34:43;3.43;;;2.23;;
7817;SDS011;3954;52.624;9.212;2023-04-04T05:37:09;4.37;;;2.10;;
7817;SDS011;3954;52.624;9.212;2023-04-04T05:39:35;3.30;;;2.17;;
7817;SDS011;3954;52.624;9.212;2023-04-04T05:42:03;2.30;;;2.00;;
7817;SDS011;3954;52.624;9.212;2023-04-04T05:44:30;3.00;;;2.30;;
7817;SDS011;3954;52.624;9.212;2023-04-04T05:46:56;2.57;;;2.13;;
7817;SDS011;3954;52.624;9.212;2023-04-04T05:49:22;4.03;;;2.50;;
7817;SDS011;3954;52.624;9.212;2023-04-04T05:51:48;2.67;;;2.37;;
7817;SDS011;3954;52.624;9.212;2023-04-04T05:54:14;2.73;;;2.00;;
7817;SDS011;3954;52.624;9.212;2023-04-04T05:56:40;2.17;;;1.93;;
7817;SDS011;3954;52.624;9.212;2023-04-04T05:59:07;2.60;;;2.20;;
7817;SDS011;3954;52.624;9.212;2023-04-04T06:01:33;2.50;;;2.00;;
7817;SDS011;3954;52.624;9.212;2023-04-04T06:04:00;2.40;;;2.20;;
7817;SDS011;3954;52.624;9.212;2023-04-04T06:06:26;2.67;;;2.20;;
7817;SDS011;3954;52.624;9.212;2023-04-04T06:08:52;4.60;;;2.57;;
7817;SDS011;3954;52.624;9.212;2023-04-04T06:11:18;4.33;;;2.00;;
7817;SDS011;3954;52.624;9.212;2023-04-04T06:13:43;3.33;;;2.00;;
7817;SDS011;3954;52.624;9.212;2023-04-04T06:16:11;2.27;;;1.93;;
7817;SDS011;3954;52.624;9.212;2023-04-04T06:18:37;3.50;;;2.17;;
7817;SDS011;3954;52.624;9.212;2023-04-04T06:21:03;3.70;;;2.37;;
7817;SDS011;3954;52.624;9.212;2023-04-04T06:23:29;4.80;;;2.20;;
7817;SDS011;3954;52.624;9.212;2023-04-04T06:25:55;4.87;;;2.20;;
7817;SDS011;3954;52.624;9.212;2023-04-04T06:28:21;3.77;;;2.23;;
7817;SDS011;3954;52.624;9.212;2023-04-04T06:30:47;5.93;;;2.30;;
7817;SDS011;3954;52.624;9.212;2023-04-04T06:33:15;2.30;;;2.10;;
7817;SDS011;3954;52.624;9.212;2023-04-04T06:35:43;3.80;;;1.93;;
7817;SDS011;3954;52.624;9.212;2023-04-04T06:38:08;3.73;;;2.33;;
7817;SDS011;3954;52.624;9.212;2023-04-04T06:40:34;4.97;;;2.27;;
7817;SDS011;3954;52.624;9.212;2023-04-04T06:43:00;3.20;;;2.00;;
7817;SDS011;3954;52.624;9.212;2023-04-04T06:45:27;3.13;;;2.30;;
7817;SDS011;3954;52.624;9.212;2023-04-04T06:47:53;3.20;;;2.20;;
7817;SDS011;3954;52.624;9.212;2023-04-04T06:50:21;3.93;;;2.20;;
7817;SDS011;3954;52.624;9.212;2023-04-04T06:52:47;2.47;;;2.07;;
7817;SDS011;3954;52.624;9.212;2023-04-04T06:55:13;4.03;;;2.20;;
7817;SDS011;3954;52.624;9.212;2023-04-04T06:57:39;2.90;;;2.13;;
7817;SDS011;3954;52.624;9.212;2023-04-04T07:00:05;6.80;;;2.30;;
7817;SDS011;3954;52.624;9.212;2023-04-04T07:02:31;4.40;;;2.17;;
7817;SDS011;3954;52.624;9.212;2023-04-04T07:04:58;4.10;;;2.47;;
7817;SDS011;3954;52.624;9.212;2023-04-04T07:07:25;5.63;;;2.27;;
7817;SDS011;3954;52.624;9.212;2023-04-04T07:09:51;2.80;;;2.20;;
7817;SDS011;3954;52.624;9.212;2023-04-04T07:12:17;3.40;;;2.33;;
7817;SDS011;3954;52.624;9.212;2023-04-04T07:14:43;4.73;;;2.73;;
7817;SDS011;3954;52.624;9.212;2023-04-04T07:17:09;6.50;;;3.67;;
7817;SDS011;3954;52.624;9.212;2023-04-04T07:19:35;4.67;;;2.70;;
7817;SDS011;3954;52.624;9.212;2023-04-04T07:22:01;7.10;;;3.47;;
7817;SDS011;3954;52.624;9.212;2023-04-04T07:24:28;6.47;;;3.50;;
7817;SDS011;3954;52.624;9.212;2023-04-04T07:26:55;5.53;;;3.00;;
7817;SDS011;3954;52.624;9.212;2023-04-04T07:29:21;6.67;;;3.33;;
7817;SDS011;3954;52.624;9.212;2023-04-04T07:31:47;4.87;;;2.93;;
7817;SDS011;3954;52.624;9.212;2023-04-04T07:34:14;7.23;;;3.50;;
7817;SDS011;3954;52.624;9.212;2023-04-04T07:36:40;7.47;;;3.90;;
7817;SDS011;3954;52.624;9.212;2023-04-04T07:39:06;6.20;;;2.30;;
7817;SDS011;3954;52.624;9.212;2023-04-04T07:41:33;4.23;;;2.20;;
7817;SDS011;3954;52.624;9.212;2023-04-04T07:43:59;3.33;;;1.87;;
7817;SDS011;3954;52.624;9.212;2023-04-04T07:46:25;2.93;;;1.80;;
7817;SDS011;3954;52.624;9.212;2023-04-04T07:48:52;4.00;;;1.80;;
7817;SDS011;3954;52.624;9.212;2023-04-04T07:51:18;5.57;;;1.57;;
7817;SDS011;3954;52.624;9.212;2023-04-04T07:53:52;3.00;;;1.90;;
7817;SDS011;3954;52.624;9.212;2023-04-04T07:56:18;3.93;;;2.27;;
7817;SDS011;3954;52.624;9.212;2023-04-04T07:58:47;3.23;;;1.70;;
7817;SDS011;3954;52.624;9.212;2023-04-04T08:01:12;2.23;;;1.63;;
7817;SDS011;3954;52.624;9.212;2023-04-04T08:03:39;2.13;;;1.50;;
7817;SDS011;3954;52.624;9.212;2023-04-04T08:06:05;4.67;;;1.67;;
7817;SDS011;3954;52.624;9.212;2023-04-04T08:08:31;5.53;;;2.07;;
7817;SDS011;3954;52.624;9.212;2023-04-04T08:10:57;3.87;;;2.00;;
7817;SDS011;3954;52.624;9.212;2023-04-04T08:13:23;3.63;;;2.00;;
7817;SDS011;3954;52.624;9.212;2023-04-04T08:15:51;4.47;;;2.03;;
7817;SDS011;3954;52.624;9.212;2023-04-04T08:18:17;2.33;;;1.63;;
7817;SDS011;3954;52.624;9.212;2023-04-04T08:20:43;4.53;;;1.97;;
7817;SDS011;3954;52.624;9.212;2023-04-04T08:23:09;3.43;;;1.77;;
7817;SDS011;3954;52.624;9.212;2023-04-04T08:25:36;2.33;;;1.60;;
7817;SDS011;3954;52.624;9.212;2023-04-04T08:28:03;3.80;;;2.17;;
7817;SDS011;3954;52.624;9.212;2023-04-04T08:30:29;3.23;;;1.87;;
7817;SDS011;3954;52.624;9.212;2023-04-04T08:32:57;2.83;;;1.53;;
7817;SDS011;3954;52.624;9.212;2023-04-04T08:35:23;2.93;;;1.70;;
7817;SDS011;3954;52.624;9.212;2023-04-04T08:37:49;3.47;;;1.70;;
7817;SDS011;3954;52.624;9.212;2023-04-04T08:40:15;5.93;;;1.90;;
7817;SDS011;3954;52.624;9.212;2023-04-04T08:42:41;2.67;;;1.80;;
7817;SDS011;3954;52.624;9.212;2023-04-04T08:45:08;3.10;;;1.70;;
7817;SDS011;3954;52.624;9.212;2023-04-04T08:47:35;2.63;;;1.40;;
7817;SDS011;3954;52.624;9.212;2023-04-04T08:50:04;2.57;;;1.93;;
7817;SDS011;3954;52.624;9.212;2023-04-04T08:52:31;2.70;;;1.70;;
7817;SDS011;3954;52.624;9.212;2023-04-04T08:54:58;2.37;;;1.40;;
7817;SDS011;3954;52.624;9.212;2023-04-04T08:57:25;3.87;;;1.93;;
7817;SDS011;3954;52.624;9.212;2023-04-04T08:59:51;2.67;;;1.70;;
7817;SDS011;3954;52.624;9.212;2023-04-04T09:02:19;2.63;;;1.60;;
7817;SDS011;3954;52.624;9.212;2023-04-04T09:04:48;3.90;;;1.60;;
7817;SDS011;3954;52.624;9.212;2023-04-04T09:07:15;3.53;;;1.90;;
7817;SDS011;3954;52.624;9.212;2023-04-04T09:09:43;2.00;;;1.70;;
7817;SDS011;3954;52.624;9.212;2023-04-04T09:12:10;3.63;;;1.87;;
7817;SDS011;3954;52.624;9.212;2023-04-04T09:14:37;3.67;;;2.07;;
7817;SDS011;3954;52.624;9.212;2023-04-04T09:17:04;2.53;;;1.50;;
7817;SDS011;3954;52.624;9.212;2023-04-04T09:19:32;4.07;;;1.80;;
7817;SDS011;3954;52.624;9.212;2023-04-04T09:21:58;2.13;;;1.40;;
7817;SDS011;3954;52.624;9.212;2023-04-04T09:24:27;3.63;;;1.73;;
7817;SDS011;3954;52.624;9.212;2023-04-04T09:27:01;3.63;;;2.00;;
7817;SDS011;3954;52.624;9.212;2023-04-04T09:29:27;2.60;;;1.70;;
7817;SDS011;3954;52.624;9.212;2023-04-04T09:31:53;3.90;;;1.60;;
7817;SDS011;3954;52.624;9.212;2023-04-04T09:34:19;2.93;;;1.67;;
7817;SDS011;3954;52.624;9.212;2023-04-04T09:36:46;1.60;;;1.43;;
7817;SDS011;3954;52.624;9.212;2023-04-04T09:39:12;2.50;;;1.60;;
7817;SDS011;3954;52.624;9.212;2023-04-04T09:41:43;3.57;;;1.87;;
7817;SDS011;3954;52.624;9.212;2023-04-04T09:44:09;2.87;;;2.00;;
7817;SDS011;3954;52.624;9.212;2023-04-04T09:46:36;2.70;;;1.70;;
7817;SDS011;3954;52.624;9.212;2023-04-04T09:49:03;2.37;;;1.60;;
7817;SDS011;3954;52.624;9.212;2023-04-04T09:51:33;5.37;;;2.00;;
7817;SDS011;3954;52.624;9.212;2023-04-04T09:54:03;2.90;;;1.70;;
7817;SDS011;3954;52.624;9.212;2023-04-04T09:56:31;3.30;;;1.67;;
7817;SDS011;3954;52.624;9.212;2023-04-04T09:58:59;3.17;;;1.90;;
7817;SDS011;3954;52.624;9.212;2023-04-04T10:01:26;2.70;;;1.70;;
7817;SDS011;3954;52.624;9.212;2023-04-04T10:03:53;2.67;;;1.60;;
7817;SDS011;3954;52.624;9.212;2023-04-04T10:06:19;3.13;;;1.70;;
7817;SDS011;3954;52.624;9.212;2023-04-04T10:08:47;2.37;;;1.73;;
7817;SDS011;3954;52.624;9.212;2023-04-04T10:11:13;3.07;;;2.10;;
7817;SDS011;3954;52.624;9.212;2023-04-04T10:13:52;1.60;;;1.50;;
7817;SDS011;3954;52.624;9.212;2023-04-04T10:16:19;2.53;;;1.67;;
7817;SDS011;3954;52.624;9.212;2023-04-04T10:18:48;3.23;;;1.90;;
7817;SDS011;3954;52.624;9.212;2023-04-04T10:21:15;1.80;;;1.60;;
7817;SDS011;3954;52.624;9.212;2023-04-04T10:23:43;3.93;;;1.80;;
7817;SDS011;3954;52.624;9.212;2023-04-04T10:26:10;4.67;;;2.00;;
7817;SDS011;3954;52.624;9.212;2023-04-04T10:28:37;4.67;;;1.80;;
7817;SDS011;3954;52.624;9.212;2023-04-04T10:31:05;3.13;;;1.60;;
7817;SDS011;3954;52.624;9.212;2023-04-04T10:33:35;2.73;;;1.70;;
7817;SDS011;3954;52.624;9.212;2023-04-04T10:36:02;3.90;;;1.77;;
7817;SDS011;3954;52.624;9.212;2023-04-04T10:38:30;3.40;;;1.63;;
7817;SDS011;3954;52.624;9.212;2023-04-04T10:40:57;2.83;;;1.80;;
7817;SDS011;3954;52.624;9.212;2023-04-04T10:43:24;2.10;;;1.67;;
7817;SDS011;3954;52.624;9.212;2023-04-04T10:45:52;2.87;;;1.60;;
7817;SDS011;3954;52.624;9.212;2023-04-04T10:48:18;1.67;;;1.30;;
7817;SDS011;3954;52.624;9.212;2023-04-04T10:50:46;2.73;;;1.60;;
7817;SDS011;3954;52.624;9.212;2023-04-04T10:53:12;1.93;;;1.60;;
7817;SDS011;3954;52.624;9.212;2023-04-04T10:55:39;2.63;;;1.53;;
7817;SDS011;3954;52.624;9.212;2023-04-04T10:58:06;2.23;;;1.50;;
7817;SDS011;3954;52.624;9.212;2023-04-04T11:00:34;2.20;;;1.43;;
7817;SDS011;3954;52.624;9.212;2023-04-04T11:03:13;2.37;;;1.50;;
7817;SDS011;3954;52.624;9.212;2023-04-04T11:05:39;3.57;;;2.00;;
7817;SDS011;3954;52.624;9.212;2023-04-04T11:08:15;4.50;;;1.80;;
7817;SDS011;3954;52.624;9.212;2023-04-04T11:10:43;3.23;;;1.80;;
7817;SDS011;3954;52.624;9.212;2023-04-04T11:13:12;2.83;;;1.80;;
7817;SDS011;3954;52.624;9.212;2023-04-04T11:15:45;2.50;;;1.53;;
7817;SDS011;3954;52.624;9.212;2023-04-04T11:18:16;3.43;;;1.60;;
7817;SDS011;3954;52.624;9.212;2023-04-04T11:20:45;2.77;;;1.77;;
7817;SDS011;3954;52.624;9.212;2023-04-04T11:23:17;2.57;;;1.40;;
7817;SDS011;3954;52.624;9.212;2023-04-04T11:25:49;3.47;;;1.60;;
7817;SDS011;3954;52.624;9.212;2023-04-04T11:28:23;2.37;;;1.53;;
7817;SDS011;3954;52.624;9.212;2023-04-04T11:31:21;1.73;;;1.43;;
7817;SDS011;3954;52.624;9.212;2023-04-04T11:33:53;2.97;;;1.60;;
7817;SDS011;3954;52.624;9.212;2023-04-04T11:39:06;3.37;;;1.60;;
7817;SDS011;3954;52.624;9.212;2023-04-04T11:41:42;2.90;;;1.90;;
7817;SDS011;3954;52.624;9.212;2023-04-04T11:44:09;3.23;;;1.80;;
7817;SDS011;3954;52.624;9.212;2023-04-04T11:46:35;2.53;;;1.33;;
7817;SDS011;3954;52.624;9.212;2023-04-04T11:49:03;6.33;;;2.00;;
7817;SDS011;3954;52.624;9.212;2023-04-04T11:51:29;2.50;;;1.80;;
7817;SDS011;3954;52.624;9.212;2023-04-04T11:53:56;3.13;;;1.73;;
7817;SDS011;3954;52.624;9.212;2023-04-04T11:56:22;2.37;;;1.60;;
7817;SDS011;3954;52.624;9.212;2023-04-04T11:58:49;1.80;;;1.60;;
7817;SDS011;3954;52.624;9.212;2023-04-04T12:01:15;4.70;;;1.70;;
7817;SDS011;3954;52.624;9.212;2023-04-04T12:03:41;3.33;;;1.80;;
7817;SDS011;3954;52.624;9.212;2023-04-04T12:06:10;2.03;;;1.50;;
7817;SDS011;3954;52.624;9.212;2023-04-04T12:08:38;3.80;;;1.80;;
7817;SDS011;3954;52.624;9.212;2023-04-04T12:11:05;3.17;;;1.43;;
7817;SDS011;3954;52.624;9.212;2023-04-04T12:13:35;3.27;;;1.60;;
7817;SDS011;3954;52.624;9.212;2023-04-04T12:16:06;3.23;;;1.50;;
7817;SDS011;3954;52.624;9.212;2023-04-04T12:18:33;3.40;;;2.00;;
7817;SDS011;3954;52.624;9.212;2023-04-04T12:20:59;3.10;;;1.70;;
7817;SDS011;3954;52.624;9.212;2023-04-04T12:23:26;3.07;;;1.70;;
7817;SDS011;3954;52.624;9.212;2023-04-04T12:25:53;2.33;;;1.70;;
7817;SDS011;3954;52.624;9.212;2023-04-04T12:28:20;4.60;;;2.00;;
7817;SDS011;3954;52.624;9.212;2023-04-04T12:30:46;3.67;;;1.70;;
7817;SDS011;3954;52.624;9.212;2023-04-04T12:33:12;2.30;;;2.03;;
7817;SDS011;3954;52.624;9.212;2023-04-04T12:35:38;3.10;;;2.07;;
7817;SDS011;3954;52.624;9.212;2023-04-04T12:38:05;3.07;;;1.40;;
7817;SDS011;3954;52.624;9.212;2023-04-04T12:40:36;1.73;;;1.47;;
7817;SDS011;3954;52.624;9.212;2023-04-04T12:43:03;3.50;;;1.93;;
7817;SDS011;3954;52.624;9.212;2023-04-04T12:45:29;3.67;;;1.93;;
7817;SDS011;3954;52.624;9.212;2023-04-04T12:47:56;1.73;;;1.60;;
7817;SDS011;3954;52.624;9.212;2023-04-04T12:50:23;3.00;;;1.63;;
7817;SDS011;3954;52.624;9.212;2023-04-04T12:52:51;2.97;;;1.70;;
7817;SDS011;3954;52.624;9.212;2023-04-04T12:55:21;2.83;;;1.90;;
7817;SDS011;3954;52.624;9.212;2023-04-04T12:57:51;3.37;;;1.70;;
7817;SDS011;3954;52.624;9.212;2023-04-04T13:00:18;2.20;;;1.63;;
7817;SDS011;3954;52.624;9.212;2023-04-04T13:02:45;2.97;;;1.80;;
7817;SDS011;3954;52.624;9.212;2023-04-04T13:05:13;2.50;;;1.70;;
7817;SDS011;3954;52.624;9.212;2023-04-04T13:07:40;3.63;;;1.90;;
7817;SDS011;3954;52.624;9.212;2023-04-04T13:10:10;2.70;;;1.87;;
7817;SDS011;3954;52.624;9.212;2023-04-04T13:12:58;2.00;;;1.80;;
7817;SDS011;3954;52.624;9.212;2023-04-04T13:18:12;2.10;;;1.70;;
7817;SDS011;3954;52.624;9.212;2023-04-04T13:20:38;3.57;;;1.50;;
7817;SDS011;3954;52.624;9.212;2023-04-04T13:23:04;2.43;;;1.60;;
7817;SDS011;3954;52.624;9.212;2023-04-04T13:25:30;1.50;;;1.40;;
7817;SDS011;3954;52.624;9.212;2023-04-04T13:27:58;1.80;;;1.50;;
7817;SDS011;3954;52.624;9.212;2023-04-04T13:30:24;2.70;;;1.70;;
7817;SDS011;3954;52.624;9.212;2023-04-04T13:32:50;2.77;;;1.60;;
7817;SDS011;3954;52.624;9.212;2023-04-04T13:35:16;2.23;;;1.60;;
7817;SDS011;3954;52.624;9.212;2023-04-04T13:37:42;3.60;;;1.97;;
7817;SDS011;3954;52.624;9.212;2023-04-04T13:40:08;4.17;;;2.00;;
7817;SDS011;3954;52.624;9.212;2023-04-04T13:42:34;3.40;;;1.80;;
7817;SDS011;3954;52.624;9.212;2023-04-04T13:45:02;3.17;;;1.83;;
7817;SDS011;3954;52.624;9.212;2023-04-04T13:47:28;2.43;;;1.90;;
7817;SDS011;3954;52.624;9.212;2023-04-04T13:49:54;2.53;;;1.60;;
7817;SDS011;3954;52.624;9.212;2023-04-04T13:52:20;1.83;;;1.60;;
7817;SDS011;3954;52.624;9.212;2023-04-04T13:54:46;3.33;;;1.77;;
7817;SDS011;3954;52.624;9.212;2023-04-04T13:57:12;2.27;;;1.80;;
7817;SDS011;3954;52.624;9.212;2023-04-04T13:59:38;2.40;;;1.67;;
7817;SDS011;3954;52.624;9.212;2023-04-04T14:02:05;2.27;;;1.80;;
7817;SDS011;3954;52.624;9.212;2023-04-04T14:04:31;4.70;;;1.80;;
7817;SDS011;3954;52.624;9.212;2023-04-04T14:06:57;2.30;;;1.60;;
7817;SDS011;3954;52.624;9.212;2023-04-04T14:09:23;2.53;;;1.90;;
7817;SDS011;3954;52.624;9.212;2023-04-04T14:11:49;2.73;;;1.80;;
7817;SDS011;3954;52.624;9.212;2023-04-04T14:14:15;1.90;;;1.70;;
7817;SDS011;3954;52.624;9.212;2023-04-04T14:16:41;3.07;;;1.67;;
7817;SDS011;3954;52.624;9.212;2023-04-04T14:19:08;2.33;;;1.60;;
7817;SDS011;3954;52.624;9.212;2023-04-04T14:21:35;3.33;;;2.00;;
7817;SDS011;3954;52.624;9.212;2023-04-04T14:24:01;3.57;;;1.80;;
7817;SDS011;3954;52.624;9.212;2023-04-04T14:26:27;3.23;;;1.70;;
7817;SDS011;3954;52.624;9.212;2023-04-04T14:28:53;2.23;;;1.70;;
7817;SDS011;3954;52.624;9.212;2023-04-04T14:31:19;2.23;;;1.60;;
7817;SDS011;3954;52.624;9.212;2023-04-04T14:33:46;2.23;;;1.87;;
7817;SDS011;3954;52.624;9.212;2023-04-04T14:36:13;4.43;;;2.20;;
7817;SDS011;3954;52.624;9.212;2023-04-04T14:38:39;3.13;;;2.00;;
7817;SDS011;3954;52.624;9.212;2023-04-04T14:41:05;3.07;;;1.80;;
7817;SDS011;3954;52.624;9.212;2023-04-04T14:43:31;3.37;;;1.97;;
7817;SDS011;3954;52.624;9.212;2023-04-04T14:45:59;2.13;;;1.60;;
7817;SDS011;3954;52.624;9.212;2023-04-04T14:48:25;2.33;;;1.80;;
7817;SDS011;3954;52.624;9.212;2023-04-04T14:50:51;3.80;;;1.70;;
7817;SDS011;3954;52.624;9.212;2023-04-04T14:53:18;3.20;;;1.50;;
7817;SDS011;3954;52.624;9.212;2023-04-04T14:55:45;3.83;;;1.80;;
7817;SDS011;3954;52.624;9.212;2023-04-04T14:58:11;2.30;;;1.70;;
7817;SDS011;3954;52.624;9.212;2023-04-04T15:00:37;2.57;;;1.93;;
7817;SDS011;3954;52.624;9.212;2023-04-04T15:03:04;3.47;;;1.70;;
7817;SDS011;3954;52.624;9.212;2023-04-04T15:05:32;1.90;;;1.57;;
7817;SDS011;3954;52.624;9.212;2023-04-04T15:07:58;3.00;;;1.70;;
7817;SDS011;3954;52.624;9.212;2023-04-04T15:10:25;2.23;;;1.80;;
7817;SDS011;3954;52.624;9.212;2023-04-04T15:12:51;3.20;;;1.73;;
7817;SDS011;3954;52.624;9.212;2023-04-04T15:15:18;2.57;;;1.63;;
7817;SDS011;3954;52.624;9.212;2023-04-04T15:17:44;1.87;;;1.70;;
7817;SDS011;3954;52.624;9.212;2023-04-04T15:20:10;2.77;;;2.00;;